Time;durP1;ratioP1;P1;durP2;ratioP2;P2;SDS_P1;SDS_P2;PMS_P1;PMS_P2;Temp;Humidity;BMP_temperature;BMP_pressure;BME280_temperature;BME280_humidity;BME280_pressure;Samples;Min_cycle;Max_cycle;Signal;HPM_P1;HPM_P2
2023/02/16 00:01:34;;;;;;;59.37;35.13;;;7.30;83.60;;;;;;4983491;28;20026;-83
2023/02/16 00:04:00;;;;;;;57.40;32.87;;;7.20;83.70;;;;;;5032207;28;20103;-82
2023/02/16 00:06:27;;;;;;;56.63;33.43;;;7.20;83.80;;;;;;5016009;28;20030;-82
2023/02/16 00:08:55;;;;;;;60.73;34.30;;;7.10;83.80;;;;;;5032414;28;20072;-83
2023/02/16 00:14:21;;;;;;;54.63;32.87;;;7.10;84.10;;;;;;5017489;28;20049;-82
2023/02/16 00:16:47;;;;;;;56.77;30.97;;;7.10;84.10;;;;;;5032238;28;20050;-82
2023/02/16 00:19:17;;;;;;;55.67;32.43;;;7.10;84.10;;;;;;5032346;28;20029;-82
2023/02/16 00:21:43;;;;;;;60.80;32.17;;;7.00;84.20;;;;;;5017485;28;20030;-83
2023/02/16 00:24:09;;;;;;;58.57;32.33;;;7.00;84.90;;;;;;5033192;28;20022;-82
2023/02/16 00:26:35;;;;;;;53.30;30.80;;;6.90;84.30;;;;;;5018041;28;20033;-82
2023/02/16 00:29:00;;;;;;;55.60;32.47;;;6.90;84.50;;;;;;5019318;28;20491;-83
2023/02/16 00:31:31;;;;;;;58.80;33.27;;;6.90;84.80;;;;;;5033241;28;20034;-83
2023/02/16 00:33:58;;;;;;;55.70;33.13;;;6.80;84.90;;;;;;5032308;28;20039;-83
2023/02/16 00:36:23;;;;;;;59.80;33.63;;;6.80;85.10;;;;;;4999830;28;20379;-83
2023/02/16 00:38:49;;;;;;;59.47;34.50;;;6.80;85.20;;;;;;5017266;28;20041;-84
2023/02/16 00:44:16;;;;;;;55.03;33.07;;;6.70;85.50;;;;;;5018756;28;20048;-83
2023/02/16 00:46:43;;;;;;;51.83;30.57;;;6.70;85.60;;;;;;5032552;28;20022;-83
2023/02/16 00:49:16;;;;;;;61.17;34.30;;;6.70;85.80;;;;;;5017260;28;20018;-84
2023/02/16 00:51:43;;;;;;;55.15;32.88;;;6.70;85.80;;;;;;5031872;28;20044;-83
2023/02/16 00:54:08;;;;;;;59.17;33.67;;;6.60;85.90;;;;;;5016286;28;20029;-83
2023/02/16 00:56:34;;;;;;;55.77;31.30;;;6.60;86.00;;;;;;5031614;28;20415;-83
2023/02/16 00:59:01;;;;;;;58.00;33.07;;;6.60;86.20;;;;;;5031451;28;20110;-83
2023/02/16 01:01:30;;;;;;;60.10;32.67;;;6.70;86.70;;;;;;5031445;28;20025;-83
2023/02/16 01:04:00;;;;;;;57.80;32.70;;;6.60;87.00;;;;;;5016009;28;20041;-83
2023/02/16 01:12:16;;;;;;;55.03;31.73;;;6.50;86.60;;;;;;5013797;28;20056;-83
2023/02/16 01:14:43;;;;;;;54.90;31.83;;;6.50;86.70;;;;;;5015859;28;20045;-83
2023/02/16 01:17:10;;;;;;;55.50;31.63;;;6.50;86.80;;;;;;5014670;28;20438;-83
2023/02/16 01:19:36;;;;;;;55.03;33.10;;;6.50;86.90;;;;;;5015791;28;20022;-83
2023/02/16 01:22:01;;;;;;;57.17;31.80;;;6.40;87.00;;;;;;5030921;28;20076;-83
2023/02/16 01:24:27;;;;;;;55.20;32.53;;;6.40;87.00;;;;;;5015699;28;20025;-83
2023/02/16 01:26:52;;;;;;;56.83;31.77;;;6.40;87.20;;;;;;4998266;28;20030;-82
2023/02/16 01:29:20;;;;;;;53.47;32.30;;;6.40;87.30;;;;;;5030899;28;20394;-83
2023/02/16 01:31:46;;;;;;;53.53;32.77;;;6.40;87.40;;;;;;5030901;28;20128;-83
2023/02/16 01:34:13;;;;;;;61.97;33.43;;;6.30;87.40;;;;;;5030761;28;20018;-83
2023/02/16 01:36:42;;;;;;;61.57;34.27;;;6.30;87.60;;;;;;5014263;28;20037;-83
2023/02/16 01:39:12;;;;;;;56.70;33.00;;;6.30;87.80;;;;;;5030553;28;20022;-83
2023/02/16 01:41:43;;;;;;;55.93;33.53;;;6.30;87.80;;;;;;5015273;28;20030;-83
2023/02/16 01:44:24;;;;;;;57.63;32.50;;;6.20;87.90;;;;;;5014090;28;20156;-83
2023/02/16 01:47:01;;;;;;;53.40;31.33;;;6.20;87.90;;;;;;5015379;28;20018;-83
2023/02/16 01:49:27;;;;;;;58.50;32.70;;;6.20;88.10;;;;;;5013939;28;20112;-82
2023/02/16 01:52:08;;;;;;;56.67;32.47;;;6.20;88.20;;;;;;5014071;28;20117;-83
2023/02/16 01:54:49;;;;;;;61.33;33.47;;;6.10;88.30;;;;;;5013798;28;20026;-83
2023/02/16 01:57:17;;;;;;;60.20;33.63;;;6.10;88.50;;;;;;5015243;28;20080;-85
2023/02/16 01:59:43;;;;;;;56.80;32.53;;;6.10;88.50;;;;;;5013721;28;20540;-83
2023/02/16 02:02:37;;;;;;;57.07;32.87;;;6.10;89.20;;;;;;5013556;28;20022;-84
2023/02/16 02:05:33;;;;;;;;;;;6.10;88.70;;;;;;5014230;28;20021;-84
2023/02/16 02:08:14;;;;;;;46.70;27.57;;;6.00;88.70;;;;;;5013577;28;19916;-82
2023/02/16 02:10:53;;;;;;;56.33;28.37;;;6.00;88.50;;;;;;5030097;28;20025;-84
2023/02/16 02:13:21;;;;;;;56.77;30.83;;;5.90;88.60;;;;;;5013216;28;20029;-84
2023/02/16 02:15:47;;;;;;;58.27;32.27;;;5.90;88.80;;;;;;5029890;28;20385;-83
2023/02/16 02:18:13;;;;;;;55.97;29.80;;;5.90;89.10;;;;;;5029772;28;20026;-82
2023/02/16 02:24:06;;;;;;;49.47;29.20;;;5.90;89.60;;;;;;5014474;28;20045;-83
2023/02/16 02:26:44;;;;;;;54.53;29.90;;;5.80;89.60;;;;;;5029775;28;20022;-83
2023/02/16 02:29:34;;;;;;;53.50;30.07;;;5.80;89.80;;;;;;5014724;28;20120;-83
2023/02/16 02:32:15;;;;;;;54.80;31.67;;;5.80;90.00;;;;;;5013205;28;20030;-83
2023/02/16 02:34:59;;;;;;;51.20;29.93;;;5.70;90.00;;;;;;5029696;28;20029;-83
2023/02/16 02:37:51;;;;;;;51.58;28.95;;;5.70;90.10;;;;;;5013082;28;20030;-83
2023/02/16 02:40:26;;;;;;;52.77;30.37;;;5.70;90.30;;;;;;5014283;28;20065;-83
2023/02/16 02:42:55;;;;;;;58.77;31.07;;;5.70;90.40;;;;;;5012922;28;20033;-82
2023/02/16 02:45:25;;;;;;;60.50;33.60;;;5.70;90.40;;;;;;5012881;28;20371;-82
2023/02/16 02:47:51;;;;;;;55.50;30.70;;;5.70;90.60;;;;;;5014205;28;20034;-83
2023/02/16 02:50:35;;;;;;;54.07;30.83;;;5.60;90.60;;;;;;5012922;28;20029;-83
2023/02/16 02:53:07;;;;;;;55.20;32.15;;;5.70;90.80;;;;;;5012828;28;20037;-82
2023/02/16 03:01:10;;;;;;;53.27;31.33;;;5.70;91.00;;;;;;5014317;28;20080;-83
2023/02/16 03:03:42;;;;;;;54.97;32.53;;;5.70;91.30;;;;;;5029262;28;20045;-83
2023/02/16 03:06:17;;;;;;;57.77;32.10;;;5.70;91.10;;;;;;5014015;28;20049;-83
2023/02/16 03:08:46;;;;;;;57.37;32.07;;;5.70;91.20;;;;;;5029057;28;20116;-83
2023/02/16 03:14:27;;;;;;;56.57;33.63;;;5.80;91.40;;;;;;5014003;28;20137;-75
2023/02/16 03:31:04;;;;;;;55.27;31.07;;;5.70;91.40;;;;;;5013365;28;20057;-76
2023/02/16 03:33:31;;;;;;;59.93;32.60;;;5.70;91.50;;;;;;4995996;28;20379;-75
2023/02/16 03:35:58;;;;;;;54.27;32.00;;;5.70;91.50;;;;;;5013431;28;20092;-75
2023/02/16 03:38:24;;;;;;;54.13;31.40;;;5.70;91.60;;;;;;5011954;28;20068;-75
2023/02/16 03:40:51;;;;;;;58.40;32.43;;;5.70;91.60;;;;;;5028476;28;20033;-75
2023/02/16 03:43:17;;;;;;;58.87;33.40;;;5.70;91.70;;;;;;5028504;28;20509;-75
2023/02/16 03:45:44;;;;;;;57.00;33.43;;;5.60;91.80;;;;;;5011998;28;20022;-76
2023/02/16 03:48:10;;;;;;;65.53;34.07;;;5.60;91.80;;;;;;5028795;28;20014;-75
2023/02/16 03:50:36;;;;;;;60.17;34.60;;;5.60;92.20;;;;;;4995670;28;20049;-75
2023/02/16 03:53:07;;;;;;;59.37;34.00;;;5.60;91.90;;;;;;5013193;28;20030;-75
2023/02/16 03:55:38;;;;;;;58.27;34.57;;;5.60;92.00;;;;;;5028687;28;20109;-75
2023/02/16 03:58:06;;;;;;;61.80;35.27;;;5.60;92.00;;;;;;5028559;28;20028;-75
2023/02/16 04:00:32;;;;;;;59.30;34.40;;;5.60;92.10;;;;;;5013316;28;20026;-74
2023/02/16 04:02:58;;;;;;;60.73;33.77;;;5.60;92.10;;;;;;4995426;28;20046;-74
2023/02/16 04:05:24;;;;;;;58.00;32.90;;;5.60;92.20;;;;;;5028445;28;20037;-74
2023/02/16 04:07:49;;;;;;;62.17;35.60;;;5.60;92.20;;;;;;5028378;28;20024;-75
2023/02/16 04:10:15;;;;;;;61.67;34.47;;;5.70;92.30;;;;;;5013142;28;20108;-74
2023/02/16 04:12:41;;;;;;;61.63;35.70;;;5.70;92.30;;;;;;4984078;28;20462;-75
2023/02/16 04:15:09;;;;;;;60.00;34.30;;;5.70;92.40;;;;;;5014005;28;20397;-74
2023/02/16 04:17:35;;;;;;;59.97;35.23;;;5.70;92.50;;;;;;5031260;28;20544;-74
2023/02/16 04:20:01;;;;;;;60.83;35.23;;;5.60;92.50;;;;;;5030236;28;20026;-74
2023/02/16 04:22:27;;;;;;;62.80;35.27;;;5.70;92.70;;;;;;5032553;28;20040;-74
2023/02/16 04:24:52;;;;;;;66.10;35.20;;;5.70;92.70;;;;;;5015024;28;20037;-74
2023/02/16 04:27:18;;;;;;;55.17;32.47;;;5.80;92.80;;;;;;5031644;28;20068;-75
2023/02/16 04:29:44;;;;;;;62.40;35.80;;;5.80;92.80;;;;;;5031707;28;20470;-74
2023/02/16 04:32:10;;;;;;;65.50;35.90;;;5.90;92.90;;;;;;5031546;28;20128;-73
2023/02/16 04:34:35;;;;;;;58.60;35.50;;;5.90;93.00;;;;;;5031336;28;20033;-74
2023/02/16 04:37:01;;;;;;;65.23;36.63;;;5.90;93.00;;;;;;5014894;28;20091;-74
2023/02/16 04:39:27;;;;;;;66.60;37.17;;;6.00;93.00;;;;;;5031244;28;20120;-74
2023/02/16 04:41:53;;;;;;;63.13;35.70;;;6.00;93.10;;;;;;5014897;28;20034;-74
2023/02/16 04:44:18;;;;;;;63.67;34.60;;;6.00;93.00;;;;;;5018386;28;20032;-74
2023/02/16 04:46:44;;;;;;;65.43;36.87;;;6.00;93.00;;;;;;5018612;28;20033;-73
2023/02/16 04:49:10;;;;;;;64.53;36.43;;;6.10;93.10;;;;;;5035023;28;20033;-74
2023/02/16 04:51:36;;;;;;;62.73;37.50;;;6.10;93.10;;;;;;5035084;28;20091;-74
2023/02/16 04:54:01;;;;;;;62.47;36.13;;;6.10;93.00;;;;;;5034795;28;20450;-74
2023/02/16 04:56:27;;;;;;;61.60;35.60;;;6.10;93.00;;;;;;5018362;28;20030;-76
2023/02/16 04:58:54;;;;;;;61.50;35.97;;;6.10;93.00;;;;;;5018476;28;20493;-75
2023/02/16 05:01:22;;;;;;;64.83;38.70;;;6.20;93.10;;;;;;5034534;28;20392;-75
2023/02/16 05:03:48;;;;;;;63.87;37.07;;;6.20;93.00;;;;;;5035417;28;20452;-75
2023/02/16 05:06:13;;;;;;;61.10;36.30;;;6.20;93.10;;;;;;5035901;28;20029;-75
2023/02/16 05:08:39;;;;;;;65.77;37.13;;;6.20;93.00;;;;;;5034550;28;20029;-74
2023/02/16 05:16:33;;;;;;;65.10;38.50;;;6.20;93.00;;;;;;5034985;28;20049;-83
2023/02/16 05:18:59;;;;;;;64.47;36.37;;;6.30;93.00;;;;;;5001692;28;20026;-75
2023/02/16 05:21:30;;;;;;;61.50;38.80;;;6.30;92.90;;;;;;5017738;28;20029;-75
2023/02/16 05:24:08;;;;;;;66.03;38.10;;;6.30;93.00;;;;;;5002981;28;20025;-75
2023/02/16 05:26:36;;;;;;;62.90;36.90;;;6.30;93.00;;;;;;5035536;28;20017;-74
2023/02/16 05:29:02;;;;;;;61.87;36.00;;;6.30;92.90;;;;;;5034405;28;20103;-74
2023/02/16 05:31:29;;;;;;;65.17;37.87;;;6.30;92.90;;;;;;5034086;28;20021;-75
2023/02/16 05:33:55;;;;;;;68.37;37.33;;;6.40;92.90;;;;;;5035250;28;20026;-75
2023/02/16 05:36:21;;;;;;;63.97;36.17;;;6.40;93.00;;;;;;5033986;28;20017;-75
2023/02/16 05:38:47;;;;;;;68.07;38.00;;;6.40;93.00;;;;;;5017436;28;20034;-74
2023/02/16 05:41:22;;;;;;;63.37;37.07;;;6.40;92.90;;;;;;5035165;28;20393;-73
2023/02/16 05:43:59;;;;;;;66.40;37.00;;;6.40;92.90;;;;;;5034999;28;20032;-75
2023/02/16 05:46:26;;;;;;;64.57;37.03;;;6.40;93.00;;;;;;5035026;28;20040;-74
2023/02/16 05:48:52;;;;;;;62.80;37.70;;;6.40;93.00;;;;;;5033764;28;20033;-74
2023/02/16 05:51:19;;;;;;;68.83;40.03;;;6.50;93.00;;;;;;5017149;28;20040;-74
2023/02/16 05:53:45;;;;;;;60.03;36.57;;;6.40;93.00;;;;;;5033466;28;20040;-84
2023/02/16 05:56:11;;;;;;;71.03;38.97;;;6.50;93.00;;;;;;5033486;28;20087;-83
2023/02/16 05:58:37;;;;;;;67.13;39.13;;;6.50;92.90;;;;;;5035069;28;20416;-83
2023/02/16 06:01:03;;;;;;;75.67;41.30;;;6.50;92.90;;;;;;5034632;28;20044;-82
2023/02/16 06:03:29;;;;;;;67.63;38.27;;;6.50;93.10;;;;;;5032981;28;20083;-83
2023/02/16 06:05:57;;;;;;;62.30;38.80;;;6.50;92.90;;;;;;5009965;28;20021;-83
2023/02/16 06:08:24;;;;;;;70.87;40.60;;;6.50;93.00;;;;;;5032836;28;20018;-83
2023/02/16 06:10:51;;;;;;;66.17;39.20;;;6.50;93.00;;;;;;5049360;28;20064;-84
2023/02/16 06:13:17;;;;;;;67.87;38.73;;;6.50;93.00;;;;;;5033713;28;20025;-83
2023/02/16 06:15:43;;;;;;;66.67;38.27;;;6.50;93.00;;;;;;5026476;28;20098;-83
2023/02/16 06:18:10;;;;;;;66.17;38.33;;;6.50;93.00;;;;;;5007275;28;20371;-83
2023/02/16 06:20:39;;;;;;;71.60;39.43;;;6.40;93.00;;;;;;4989522;28;20022;-83
2023/02/16 06:23:07;;;;;;;68.27;39.83;;;6.50;93.00;;;;;;5023017;28;20022;-83
2023/02/16 06:25:33;;;;;;;66.07;37.63;;;6.50;93.00;;;;;;5022182;28;20046;-83
2023/02/16 06:27:58;;;;;;;62.87;37.77;;;6.50;93.00;;;;;;5022759;28;20028;-84
2023/02/16 06:30:24;;;;;;;66.70;38.40;;;6.50;93.00;;;;;;5006416;28;20116;-84
2023/02/16 06:32:50;;;;;;;69.73;38.83;;;6.60;93.00;;;;;;5023760;28;20044;-83
2023/02/16 06:35:16;;;;;;;71.50;39.03;;;6.60;93.00;;;;;;5029254;28;20494;-83
2023/02/16 06:37:42;;;;;;;66.67;38.53;;;6.60;93.00;;;;;;5033796;28;20092;-83
2023/02/16 06:40:13;;;;;;;67.40;36.53;;;6.60;93.00;;;;;;5027666;28;20113;-83
2023/02/16 06:42:39;;;;;;;66.23;39.13;;;6.60;93.10;;;;;;5016414;28;20022;-83
2023/02/16 06:45:05;;;;;;;67.07;39.47;;;6.60;93.10;;;;;;5012096;28;20026;-83
2023/02/16 06:47:31;;;;;;;62.87;35.90;;;6.60;93.20;;;;;;5032664;28;20018;-83
2023/02/16 06:49:57;;;;;;;65.97;38.67;;;6.70;93.10;;;;;;5007148;28;20022;-83
2023/02/16 06:52:22;;;;;;;64.67;37.03;;;6.70;93.10;;;;;;4988723;28;20034;-83
2023/02/16 06:54:48;;;;;;;63.43;35.77;;;6.70;93.10;;;;;;5027284;28;20080;-83
2023/02/16 06:57:13;;;;;;;61.10;36.50;;;6.70;93.00;;;;;;5016253;28;20079;-83
2023/02/16 06:59:39;;;;;;;62.07;37.80;;;6.70;93.10;;;;;;5016057;28;20389;-83
2023/02/16 07:02:05;;;;;;;64.53;37.83;;;6.70;93.10;;;;;;5015980;28;20478;-83
2023/02/16 07:04:31;;;;;;;68.03;39.77;;;6.80;93.20;;;;;;5023295;28;20514;-82
2023/02/16 07:06:57;;;;;;;59.30;35.80;;;6.80;93.20;;;;;;4995467;28;20107;-84
2023/02/16 07:09:22;;;;;;;63.27;36.13;;;6.80;93.10;;;;;;5031149;28;20064;-83
2023/02/16 07:11:48;;;;;;;64.97;38.47;;;6.80;93.10;;;;;;4999748;28;20053;-83
2023/02/16 07:14:14;;;;;;;68.83;38.90;;;6.90;93.20;;;;;;5033017;28;20029;-83
2023/02/16 07:16:41;;;;;;;66.67;39.37;;;6.80;93.20;;;;;;5000019;28;20031;-84
2023/02/16 07:19:07;;;;;;;62.57;37.93;;;6.90;93.60;;;;;;5032202;28;20470;-83
2023/02/16 07:21:32;;;;;;;60.33;37.80;;;6.90;93.20;;;;;;5032277;28;20017;-83
2023/02/16 07:23:58;;;;;;;63.47;37.33;;;6.90;93.10;;;;;;5000135;28;20032;-83
2023/02/16 07:26:24;;;;;;;64.33;37.47;;;6.90;93.10;;;;;;5032022;28;20021;-84
2023/02/16 07:28:50;;;;;;;60.87;35.27;;;6.90;93.10;;;;;;5015810;28;20049;-83
2023/02/16 07:31:16;;;;;;;61.27;37.13;;;6.90;93.20;;;;;;5032033;28;20029;-82
2023/02/16 07:33:42;;;;;;;65.53;38.10;;;6.90;93.20;;;;;;5033278;28;20486;-82
2023/02/16 07:36:08;;;;;;;63.63;37.00;;;6.90;93.20;;;;;;5032158;28;20040;-84
2023/02/16 07:38:34;;;;;;;57.97;34.67;;;7.00;93.30;;;;;;4998933;28;20052;-84
2023/02/16 07:41:00;;;;;;;62.93;36.57;;;7.00;93.30;;;;;;5015627;28;20071;-85
2023/02/16 07:43:26;;;;;;;67.63;39.73;;;7.00;93.30;;;;;;5015581;28;20026;-85
2023/02/16 07:45:52;;;;;;;62.10;37.53;;;7.00;93.30;;;;;;5031998;28;20112;-84
2023/02/16 07:48:17;;;;;;;62.87;38.13;;;7.00;93.30;;;;;;5015548;28;20374;-84
2023/02/16 07:50:43;;;;;;;66.10;38.67;;;7.10;93.40;;;;;;5031807;28;20030;-84
2023/02/16 07:53:09;;;;;;;63.43;37.33;;;7.10;93.50;;;;;;5015444;28;20032;-84
2023/02/16 07:55:39;;;;;;;58.83;36.83;;;7.10;93.50;;;;;;5031898;28;20537;-84
2023/02/16 07:58:05;;;;;;;60.57;36.90;;;7.20;93.50;;;;;;5031838;28;20026;-84
2023/02/16 08:00:31;;;;;;;63.50;37.50;;;7.20;93.60;;;;;;5031825;28;20037;-84
2023/02/16 08:02:56;;;;;;;64.07;35.87;;;7.40;93.60;;;;;;5015235;28;20034;-84
2023/02/16 08:05:22;;;;;;;62.83;36.50;;;7.30;93.60;;;;;;5015856;28;20061;-84
2023/02/16 08:07:48;;;;;;;58.17;36.27;;;7.40;93.50;;;;;;5015770;28;20022;-84
2023/02/16 08:10:14;;;;;;;58.57;34.37;;;7.40;93.50;;;;;;5015790;28;20060;-84
2023/02/16 08:12:40;;;;;;;56.43;34.30;;;7.40;93.50;;;;;;5032429;28;20391;-85
2023/02/16 08:15:06;;;;;;;60.07;38.60;;;7.50;93.50;;;;;;5034472;28;20061;-84
2023/02/16 08:17:33;;;;;;;63.53;39.50;;;7.50;93.50;;;;;;5017478;28;20034;-84
2023/02/16 08:19:59;;;;;;;57.93;35.20;;;7.50;93.50;;;;;;5037558;28;20030;-84
2023/02/16 08:22:25;;;;;;;60.07;36.27;;;7.60;93.40;;;;;;5019314;28;20497;-84
2023/02/16 08:24:50;;;;;;;60.30;37.30;;;7.60;93.30;;;;;;5019429;28;20033;-85
2023/02/16 08:27:16;;;;;;;61.17;36.97;;;7.60;93.30;;;;;;5002719;28;20056;-85
2023/02/16 08:29:42;;;;;;;61.90;36.83;;;7.70;93.30;;;;;;5019345;28;20072;-85
2023/02/16 08:32:11;;;;;;;57.17;35.57;;;7.70;93.40;;;;;;5018913;28;20398;-84
2023/02/16 08:34:38;;;;;;;59.20;35.37;;;7.70;93.30;;;;;;5018872;28;20021;-85
2023/02/16 08:37:04;;;;;;;61.77;37.03;;;7.70;93.30;;;;;;5035063;28;20033;-84
2023/02/16 08:39:31;;;;;;;56.80;35.77;;;7.70;93.20;;;;;;5002163;28;20030;-82
2023/02/16 08:41:58;;;;;;;61.80;36.33;;;7.80;93.30;;;;;;5035010;28;20022;-85
2023/02/16 08:44:24;;;;;;;57.23;34.33;;;7.80;93.20;;;;;;5018668;28;20034;-84
2023/02/16 08:46:52;;;;;;;61.07;38.00;;;7.80;93.20;;;;;;5018478;28;20366;-85
2023/02/16 08:49:20;;;;;;;62.13;36.30;;;7.80;93.20;;;;;;5002246;28;20029;-84
2023/02/16 08:51:49;;;;;;;59.30;35.03;;;7.90;93.30;;;;;;5034888;28;20056;-85
2023/02/16 08:54:35;;;;;;;54.63;32.60;;;7.90;93.20;;;;;;5036391;28;20025;-86
2023/02/16 08:57:01;;;;;;;58.53;33.57;;;7.90;93.20;;;;;;5035915;28;20462;-86
2023/02/16 08:59:27;;;;;;;53.23;33.53;;;7.90;93.20;;;;;;5002294;28;20437;-86
2023/02/16 09:01:53;;;;;;;59.47;37.17;;;8.00;93.20;;;;;;5018323;28;20068;-86
2023/02/16 09:04:19;;;;;;;61.03;34.87;;;7.90;93.20;;;;;;5002022;28;20056;-85
2023/02/16 09:06:47;;;;;;;59.93;36.80;;;8.00;93.30;;;;;;5018509;28;20129;-86
2023/02/16 09:09:13;;;;;;;60.00;35.60;;;8.00;93.20;;;;;;5035099;28;20032;-86
2023/02/16 09:11:39;;;;;;;59.20;36.27;;;8.00;93.30;;;;;;5034844;28;20025;-86
2023/02/16 09:14:05;;;;;;;62.10;37.40;;;8.00;93.30;;;;;;5002370;28;20505;-84
2023/02/16 09:16:37;;;;;;;55.77;34.37;;;8.10;93.30;;;;;;5018126;28;20057;-86
2023/02/16 09:19:04;;;;;;;60.70;36.43;;;8.10;93.30;;;;;;5018906;28;20088;-87
2023/02/16 09:21:33;;;;;;;56.60;34.87;;;8.10;93.20;;;;;;5034753;28;20032;-84
2023/02/16 09:24:02;;;;;;;56.07;34.97;;;8.20;93.20;;;;;;5034610;28;20044;-85
2023/02/16 09:26:32;;;;;;;56.30;33.90;;;8.10;93.20;;;;;;5035200;28;20022;-86
2023/02/16 09:28:59;;;;;;;55.37;33.47;;;8.20;93.20;;;;;;5033759;28;20053;-84
2023/02/16 09:31:27;;;;;;;56.83;33.87;;;8.20;93.30;;;;;;5034310;28;20021;-85
2023/02/16 09:34:01;;;;;;;53.30;34.53;;;8.30;93.30;;;;;;5034195;28;20086;-86
2023/02/16 09:36:27;;;;;;;44.92;26.85;;;8.30;93.30;;;;;;5034218;28;20025;-85
2023/02/16 09:38:55;;;;;;;50.33;32.47;;;8.30;93.30;;;;;;5033851;28;20120;-85
2023/02/16 09:41:40;;;;;;;58.10;36.07;;;8.40;93.30;;;;;;5017965;28;20076;-85
2023/02/16 09:44:25;;;;;;;58.37;35.10;;;8.40;93.30;;;;;;5033860;28;20515;-85
2023/02/16 09:46:51;;;;;;;;;;;8.40;93.40;;;;;;5034551;28;20026;-86
2023/02/16 09:49:36;;;;;;;53.97;33.07;;;8.50;93.50;;;;;;5017430;28;19990;-85
2023/02/16 09:52:36;;;;;;;51.83;32.63;;;8.50;93.40;;;;;;5035366;28;20485;-85
2023/02/16 09:55:06;;;;;;;52.57;33.60;;;8.50;93.30;;;;;;5033596;28;20030;-77
2023/02/16 09:57:57;;;;;;;61.47;36.43;;;8.50;93.40;;;;;;5033557;28;20068;-77
2023/02/16 10:00:43;;;;;;;51.70;33.57;;;8.50;93.50;;;;;;5033557;28;20033;-77
2023/02/16 10:03:31;;;;;;;53.50;34.63;;;8.60;93.50;;;;;;5033483;28;20040;-77
2023/02/16 10:06:13;;;;;;;51.17;32.50;;;8.60;93.60;;;;;;5033242;28;20046;-77
2023/02/16 10:09:03;;;;;;;53.17;33.73;;;8.70;93.60;;;;;;5033285;28;20029;-77
2023/02/16 10:11:47;;;;;;;53.83;33.93;;;8.70;93.60;;;;;;5032923;28;20025;-78
2023/02/16 10:14:36;;;;;;;65.15;35.50;;;8.70;93.70;;;;;;5033203;28;20021;-78
2023/02/16 10:17:36;;;;;;;55.70;35.10;;;8.70;93.90;;;;;;5033011;28;20025;-78
2023/02/16 10:20:11;;;;;;;55.37;34.03;;;8.80;93.90;;;;;;5033100;28;20037;-78
2023/02/16 10:22:51;;;;;;;59.63;36.03;;;8.80;94.10;;;;;;5032855;28;20059;-78
2023/02/16 10:25:38;;;;;;;52.47;34.97;;;8.80;94.20;;;;;;5032893;28;20033;-78
2023/02/16 10:28:14;;;;;;;57.23;35.30;;;8.80;94.30;;;;;;5032971;28;20132;-78
2023/02/16 10:30:45;;;;;;;53.33;33.57;;;8.80;94.30;;;;;;5032995;28;20032;-78
2023/02/16 10:33:21;;;;;;;53.97;34.53;;;8.90;94.30;;;;;;5034104;28;20032;-78
2023/02/16 10:35:51;;;;;;;55.33;36.70;;;8.90;94.30;;;;;;5032740;28;20022;-78
2023/02/16 10:38:35;;;;;;;60.23;36.67;;;8.90;94.40;;;;;;5033898;28;20029;-78
2023/02/16 10:41:10;;;;;;;57.33;36.35;;;8.80;94.50;;;;;;5033031;28;20098;-78
2023/02/16 10:43:52;;;;;;;61.33;37.03;;;8.90;94.80;;;;;;5032627;28;20108;-78
2023/02/16 10:46:25;;;;;;;57.47;36.53;;;8.80;94.80;;;;;;5033945;28;20499;-78
2023/02/16 10:48:55;;;;;;;54.70;35.63;;;8.80;94.90;;;;;;5032475;28;20424;-78
2023/02/16 10:51:27;;;;;;;58.87;36.47;;;8.80;95.00;;;;;;5032893;28;20025;-78
2023/02/16 10:54:04;;;;;;;57.90;36.40;;;8.80;95.20;;;;;;5032610;28;20432;-78
2023/02/16 10:56:48;;;;;;;56.93;35.50;;;8.80;95.30;;;;;;5032460;28;20021;-78
2023/02/16 10:59:23;;;;;;;54.55;35.40;;;8.80;95.20;;;;;;5033881;28;20029;-78
2023/02/16 11:01:56;;;;;;;63.40;36.90;;;8.80;95.20;;;;;;5032480;28;20026;-79
2023/02/16 11:04:32;;;;;;;57.00;36.50;;;8.80;95.40;;;;;;5033462;28;20076;-79
2023/02/16 11:07:18;;;;;;;57.23;36.77;;;8.80;95.60;;;;;;5033646;28;20021;-77
2023/02/16 11:09:47;;;;;;;64.37;37.43;;;8.70;95.60;;;;;;5032230;28;20018;-78
2023/02/16 11:12:38;;;;;;;57.30;37.23;;;8.70;95.70;;;;;;5032194;28;20036;-77
2023/02/16 11:15:17;;;;;;;59.70;37.37;;;8.70;96.00;;;;;;5031701;28;20030;-77
2023/02/16 11:17:59;;;;;;;60.50;38.37;;;8.80;96.30;;;;;;5032194;28;20359;-78
2023/02/16 11:20:49;;;;;;;55.93;35.30;;;8.70;96.20;;;;;;5032083;28;20033;-78
2023/02/16 11:23:21;;;;;;;54.97;36.07;;;8.70;96.20;;;;;;5033411;28;20025;-78
2023/02/16 11:26:06;;;;;;;58.93;37.40;;;8.80;96.40;;;;;;5031988;28;20028;-78
2023/02/16 11:28:42;;;;;;;55.47;34.50;;;8.70;96.40;;;;;;5032102;28;20025;-78
2023/02/16 11:31:29;;;;;;;61.67;35.20;;;8.70;96.40;;;;;;5032051;28;20079;-78
2023/02/16 11:33:55;;;;;;;52.37;32.87;;;8.70;96.40;;;;;;5031985;28;20370;-77
2023/02/16 11:36:26;;;;;;;52.93;35.13;;;8.70;96.60;;;;;;5032011;28;20033;-78
2023/02/16 11:39:04;;;;;;;57.30;36.60;;;8.70;96.70;;;;;;5031913;28;20028;-79
2023/02/16 11:41:32;;;;;;;56.10;35.43;;;8.70;96.70;;;;;;5033106;28;20073;-77
2023/02/16 11:43:59;;;;;;;58.17;35.47;;;8.70;96.80;;;;;;5015415;28;20477;-79
2023/02/16 11:46:25;;;;;;;59.80;37.30;;;8.80;96.90;;;;;;5031832;28;20168;-77
2023/02/16 11:48:51;;;;;;;58.67;35.23;;;8.80;97.10;;;;;;5015168;28;20112;-77
2023/02/16 11:51:31;;;;;;;53.50;34.53;;;8.80;97.20;;;;;;5015350;28;20131;-79
2023/02/16 11:54:03;;;;;;;58.77;35.60;;;8.80;97.30;;;;;;5035207;28;20086;-79
2023/02/16 11:56:34;;;;;;;55.23;34.03;;;8.90;97.60;;;;;;5035531;28;20025;-79
2023/02/16 11:59:20;;;;;;;51.27;33.83;;;8.90;97.70;;;;;;5035507;28;20033;-78
2023/02/16 12:02:07;;;;;;;56.13;36.47;;;8.90;97.80;;;;;;5019193;28;20029;-77
2023/02/16 12:05:02;;;;;;;56.63;36.47;;;9.00;97.80;;;;;;5035475;28;20057;-77
2023/02/16 12:08:11;;;;;;;53.92;34.65;;;9.00;97.90;;;;;;5035191;28;20038;-77
2023/02/16 12:10:55;;;;;;;55.80;34.80;;;9.10;97.90;;;;;;5035087;28;20137;-80
2023/02/16 12:13:34;;;;;;;52.63;34.22;;;9.20;98.00;;;;;;5033835;28;20033;-77
2023/02/16 12:16:25;;;;;;;56.33;35.93;;;9.30;98.00;;;;;;5034126;28;20013;-79
2023/02/16 12:19:06;;;;;;;55.60;35.23;;;9.40;98.10;;;;;;5033550;28;20425;-77
2023/02/16 12:21:39;;;;;;;57.67;37.93;;;9.40;98.10;;;;;;5034705;28;20041;-77
2023/02/16 12:24:33;;;;;;;55.73;35.93;;;9.50;98.30;;;;;;5035215;28;20029;-80
2023/02/16 12:27:02;;;;;;;51.97;33.67;;;9.60;98.30;;;;;;5035211;28;20067;-78
2023/02/16 12:29:56;;;;;;;57.90;35.30;;;9.70;98.20;;;;;;5035248;28;20056;-78
2023/02/16 12:32:29;;;;;;;52.67;34.83;;;9.80;98.20;;;;;;5035258;28;20424;-78
2023/02/16 12:35:06;;;;;;;51.60;34.87;;;9.90;98.20;;;;;;5035169;28;20032;-78
2023/02/16 12:37:56;;;;;;;50.73;33.77;;;10.00;98.30;;;;;;5036306;28;20470;-77
2023/02/16 12:40:40;;;;;;;58.23;35.57;;;10.10;98.30;;;;;;5036094;28;20033;-77
2023/02/16 12:43:37;;;;;;;52.70;34.03;;;10.20;98.20;;;;;;5034989;28;20021;-78
2023/02/16 12:46:28;;;;;;;50.57;31.70;;;10.40;98.40;;;;;;5034920;28;20512;-77
2023/02/16 12:48:57;;;;;;;46.57;31.43;;;10.60;97.90;;;;;;5035009;28;20473;-77
2023/02/16 12:51:29;;;;;;;49.83;32.87;;;10.70;97.90;;;;;;5034979;28;20382;-77
2023/02/16 12:54:28;;;;;;;47.33;31.02;;;11.00;98.30;;;;;;5034901;28;20142;-77
2023/02/16 12:57:05;;;;;;;40.33;27.58;;;11.50;99.10;;;;;;5034681;28;20030;-77
2023/02/16 12:59:46;;;;;;;41.55;29.27;;;12.00;98.60;;;;;;5034829;28;20040;-77
2023/02/16 13:02:34;;;;;;;42.38;28.98;;;12.30;97.80;;;;;;5034474;28;20398;-78
2023/02/16 13:05:11;;;;;;;42.13;29.50;;;12.70;97.00;;;;;;5034267;28;20050;-77
2023/02/16 13:07:40;;;;;;;45.20;28.50;;;12.90;95.90;;;;;;5034473;28;20061;-77
2023/02/16 13:10:15;;;;;;;42.17;28.17;;;13.10;95.30;;;;;;5034350;28;20078;-78
2023/02/16 13:12:52;;;;;;;41.70;28.35;;;13.10;94.40;;;;;;5034405;28;20112;-77
2023/02/16 13:15:42;;;;;;;40.10;27.00;;;13.20;93.80;;;;;;5034323;28;20022;-77
2023/02/16 13:18:20;;;;;;;37.90;27.80;;;13.30;93.00;;;;;;5034365;28;20039;-77
2023/02/16 13:20:55;;;;;;;37.20;25.33;;;13.40;92.50;;;;;;5034372;28;20083;-78
2023/02/16 13:23:20;;;;;;;39.65;26.10;;;13.50;92.60;;;;;;5034223;28;20534;-78
2023/02/16 13:25:58;;;;;;;34.17;25.50;;;13.80;92.20;;;;;;5034267;28;20034;-77
2023/02/16 13:28:26;;;;;;;35.35;25.67;;;14.10;91.40;;;;;;5034307;28;20037;-77
2023/02/16 13:30:55;;;;;;;35.45;24.83;;;14.40;90.50;;;;;;5034122;28;20068;-77
2023/02/16 13:34:04;;;;;;;32.53;23.45;;;14.60;89.90;;;;;;5033874;28;20501;-78
2023/02/16 13:36:40;;;;;;;36.67;24.50;;;14.70;87.90;;;;;;5033896;28;20036;-78
2023/02/16 13:39:30;;;;;;;33.00;23.75;;;14.80;86.00;;;;;;5035150;28;20025;-77
2023/02/16 13:42:21;;;;;;;35.67;24.45;;;14.80;85.40;;;;;;5033758;28;20036;-78